Time;durP1;ratioP1;P1;durP2;ratioP2;P2;SDS_P1;SDS_P2;PMS_P1;PMS_P2;Temp;Humidity;BMP_temperature;BMP_pressure;BME280_temperature;BME280_humidity;BME280_pressure;Samples;Min_cycle;Max_cycle;Signal;HPM_P1;HPM_P2
2022/10/20 00:00:11;;;;;;;6.60;3.72;;;15.70;99.90;;;;;;4998655;28;20038;-74
2022/10/20 00:02:37;;;;;;;7.43;4.20;;;15.60;99.90;;;;;;5005497;28;20030;-74
2022/10/20 00:05:03;;;;;;;12.15;5.38;;;15.50;99.90;;;;;;5004844;28;20041;-74
2022/10/20 00:07:29;;;;;;;8.02;4.30;;;15.60;99.90;;;;;;4999335;28;20378;-74
2022/10/20 00:09:54;;;;;;;8.02;4.40;;;15.60;99.90;;;;;;5001230;28;20045;-74
2022/10/20 00:12:20;;;;;;;9.73;3.70;;;15.50;99.90;;;;;;5005032;28;21005;-74
2022/10/20 00:14:45;;;;;;;8.18;4.30;;;15.50;99.90;;;;;;5001960;28;20050;-74
2022/10/20 00:17:11;;;;;;;7.25;4.07;;;15.50;99.90;;;;;;4999010;28;20038;-74
2022/10/20 00:19:37;;;;;;;8.18;3.70;;;15.40;99.90;;;;;;4997389;28;20035;-74
2022/10/20 00:22:02;;;;;;;7.57;4.30;;;15.30;99.90;;;;;;4993415;28;20057;-74
2022/10/20 00:24:28;;;;;;;13.00;4.68;;;15.10;99.90;;;;;;5000963;28;20025;-73
2022/10/20 00:26:54;;;;;;;6.80;4.15;;;14.90;99.90;;;;;;4999167;28;20030;-74
2022/10/20 00:29:19;;;;;;;9.43;4.43;;;14.80;99.90;;;;;;4991134;28;20026;-74
2022/10/20 00:31:45;;;;;;;8.88;4.10;;;14.60;99.90;;;;;;4992005;28;20113;-74
2022/10/20 00:34:10;;;;;;;9.45;4.22;;;14.50;99.90;;;;;;4997536;28;20154;-74
2022/10/20 00:36:36;;;;;;;8.45;4.47;;;14.50;99.90;;;;;;5005303;28;20485;-74
2022/10/20 00:39:04;;;;;;;8.65;4.57;;;14.50;99.90;;;;;;5002075;28;20027;-74
2022/10/20 00:41:30;;;;;;;10.25;4.22;;;14.60;99.90;;;;;;4993649;28;20030;-74
2022/10/20 00:43:58;;;;;;;10.88;4.30;;;14.60;99.90;;;;;;4999989;28;20042;-74
2022/10/20 00:46:44;;;;;;;10.20;4.07;;;14.50;99.90;;;;;;4991839;28;20034;-74
2022/10/20 00:49:13;;;;;;;10.88;3.92;;;14.40;99.90;;;;;;5006191;28;20030;-74
2022/10/20 00:51:38;;;;;;;8.18;3.90;;;14.40;99.90;;;;;;5002509;28;20768;-74
2022/10/20 00:54:12;;;;;;;13.25;4.03;;;14.40;99.90;;;;;;4994571;28;20026;-74
2022/10/20 00:56:42;;;;;;;6.07;3.88;;;14.40;99.90;;;;;;5005293;28;20041;-73
2022/10/20 00:59:09;;;;;;;11.25;4.18;;;14.50;99.90;;;;;;4990895;28;20034;-74
2022/10/20 01:01:37;;;;;;;8.65;4.88;;;14.60;99.90;;;;;;5000319;28;20030;-73
2022/10/20 01:04:03;;;;;;;9.90;5.55;;;14.70;99.90;;;;;;4995617;28;20094;-74
2022/10/20 01:06:29;;;;;;;9.18;5.13;;;14.60;99.90;;;;;;4994382;28;20046;-74
2022/10/20 01:08:55;;;;;;;14.30;4.60;;;14.50;99.90;;;;;;5000782;28;20032;-74
2022/10/20 01:11:46;;;;;;;10.45;4.20;;;14.40;99.90;;;;;;5002650;28;20415;-74
2022/10/20 01:14:44;;;;;;;7.85;4.43;;;14.30;99.90;;;;;;5000423;28;20030;-74
2022/10/20 01:17:12;;;;;;;7.97;3.55;;;14.10;99.90;;;;;;5006317;28;20034;-74
2022/10/20 01:20:21;;;;;;;9.32;4.28;;;14.20;99.90;;;;;;4997994;28;20586;-74
2022/10/20 01:23:35;;;;;;;9.13;4.35;;;14.50;99.90;;;;;;4991872;28;20034;-74
2022/10/20 01:26:34;;;;;;;9.70;4.65;;;14.60;99.90;;;;;;5009070;28;20042;-73
2022/10/20 01:29:12;;;;;;;9.00;4.40;;;14.70;99.90;;;;;;5003310;28;20510;-73
2022/10/20 01:31:57;;;;;;;9.70;4.60;;;14.50;99.90;;;;;;4999495;28;20049;-73
2022/10/20 01:34:39;;;;;;;12.00;4.35;;;14.40;99.90;;;;;;5016574;28;20401;-74
2022/10/20 01:37:17;;;;;;;9.05;4.68;;;14.30;99.90;;;;;;4993253;28;20026;-74
2022/10/20 01:39:53;;;;;;;7.45;3.97;;;14.20;99.90;;;;;;4995198;28;20057;-74
2022/10/20 01:42:23;;;;;;;11.52;4.78;;;14.10;99.90;;;;;;4996107;28;20026;-74
2022/10/20 01:44:51;;;;;;;9.02;4.50;;;14.20;99.90;;;;;;4998156;28;20041;-74
2022/10/20 01:47:19;;;;;;;9.40;4.65;;;14.20;99.90;;;;;;5005524;28;20034;-74
2022/10/20 01:49:47;;;;;;;8.90;4.47;;;14.20;99.90;;;;;;5007995;28;20045;-74
2022/10/20 01:52:13;;;;;;;9.65;3.85;;;14.00;99.90;;;;;;5001011;28;20030;-74
2022/10/20 01:54:39;;;;;;;9.02;4.28;;;14.10;99.90;;;;;;4998811;28;20388;-74
2022/10/20 01:57:16;;;;;;;8.80;4.38;;;14.00;99.90;;;;;;4992395;28;20030;-74
2022/10/20 02:00:13;;;;;;;9.15;4.18;;;14.00;99.90;;;;;;4996872;28;20045;-74
2022/10/20 02:02:57;;;;;;;11.43;4.75;;;14.00;99.90;;;;;;4996008;28;20043;-74
2022/10/20 02:05:42;;;;;;;7.97;4.38;;;14.00;99.90;;;;;;4993529;28;20088;-74
2022/10/20 02:08:23;;;;;;;10.23;4.38;;;14.00;99.90;;;;;;4995811;28;20061;-73
2022/10/20 02:10:51;;;;;;;12.65;4.72;;;14.10;99.90;;;;;;4992885;28;20387;-74
2022/10/20 02:13:20;;;;;;;8.35;4.03;;;14.00;99.90;;;;;;5006281;28;20455;-73
2022/10/20 02:15:52;;;;;;;10.38;3.88;;;14.00;99.90;;;;;;5005599;28;20057;-74
2022/10/20 02:18:30;;;;;;;9.20;3.83;;;14.10;99.90;;;;;;5001256;28;20029;-74
2022/10/20 02:20:59;;;;;;;11.48;4.95;;;14.20;99.90;;;;;;4992186;28;20492;-74
2022/10/20 02:23:24;;;;;;;10.32;4.57;;;14.10;99.90;;;;;;4998404;28;20084;-73
2022/10/20 02:25:52;;;;;;;9.88;4.20;;;14.10;99.90;;;;;;4990654;28;20611;-73
2022/10/20 02:28:19;;;;;;;7.65;4.03;;;14.10;99.90;;;;;;5005387;28;20087;-74
2022/10/20 02:30:45;;;;;;;9.13;3.78;;;13.90;99.90;;;;;;5001418;28;20042;-74
2022/10/20 02:33:12;;;;;;;10.20;4.43;;;13.80;99.90;;;;;;4999523;28;20034;-73
2022/10/20 02:35:40;;;;;;;7.93;3.83;;;13.60;99.90;;;;;;4997248;28;20034;-74
2022/10/20 02:38:06;;;;;;;9.15;4.22;;;13.70;99.90;;;;;;4996071;28;20117;-74
2022/10/20 02:40:32;;;;;;;11.20;4.20;;;13.90;99.90;;;;;;4992438;28;20161;-73
2022/10/20 02:42:57;;;;;;;9.63;4.03;;;14.00;99.90;;;;;;4998328;28;20022;-73
2022/10/20 02:45:23;;;;;;;9.10;4.55;;;14.00;99.90;;;;;;4995472;28;20104;-73
2022/10/20 02:47:48;;;;;;;9.30;4.28;;;13.90;99.90;;;;;;5002290;28;20041;-73
2022/10/20 02:50:15;;;;;;;6.93;4.13;;;14.00;99.90;;;;;;5001109;28;20041;-74
2022/10/20 02:52:41;;;;;;;13.80;4.25;;;14.10;99.90;;;;;;4988692;28;20027;-73
2022/10/20 02:55:07;;;;;;;8.05;4.00;;;14.10;99.90;;;;;;4998303;28;20034;-73
2022/10/20 02:57:33;;;;;;;7.63;3.25;;;13.70;99.90;;;;;;4999393;28;20451;-74
2022/10/20 02:59:58;;;;;;;11.30;4.07;;;13.80;99.90;;;;;;4996742;28;20061;-74
2022/10/20 03:02:24;;;;;;;6.90;3.70;;;13.90;99.90;;;;;;4989228;28;20035;-73
2022/10/20 03:04:49;;;;;;;7.20;3.30;;;13.80;99.90;;;;;;4984591;28;20069;-74
2022/10/20 03:07:15;;;;;;;7.28;3.83;;;13.50;99.90;;;;;;4994711;28;20057;-74
2022/10/20 03:09:43;;;;;;;9.82;4.03;;;13.40;99.90;;;;;;4995187;28;20066;-74
2022/10/20 03:12:08;;;;;;;11.23;4.35;;;13.40;99.90;;;;;;4993681;28;20022;-74
2022/10/20 03:14:34;;;;;;;7.72;4.10;;;13.40;99.90;;;;;;4993229;28;20034;-73
2022/10/20 03:16:59;;;;;;;10.13;4.13;;;13.40;99.90;;;;;;4988339;28;20763;-73
2022/10/20 03:19:26;;;;;;;7.13;3.75;;;13.30;99.90;;;;;;4990792;28;20030;-73
2022/10/20 03:21:52;;;;;;;7.55;3.47;;;13.10;99.90;;;;;;4989723;28;20038;-74
2022/10/20 03:24:17;;;;;;;10.40;4.05;;;13.00;99.90;;;;;;4990073;28;20042;-74
2022/10/20 03:26:43;;;;;;;7.68;4.30;;;13.00;99.90;;;;;;4995917;28;20065;-73
2022/10/20 03:29:09;;;;;;;8.82;4.30;;;13.00;99.90;;;;;;4985946;28;20030;-74
2022/10/20 03:31:34;;;;;;;9.05;4.40;;;13.20;99.90;;;;;;4993938;28;20069;-74
2022/10/20 03:34:00;;;;;;;9.10;3.72;;;13.30;99.90;;;;;;4998791;28;20053;-74
2022/10/20 03:36:25;;;;;;;9.05;3.67;;;13.10;99.90;;;;;;5001216;28;20121;-74
2022/10/20 03:38:51;;;;;;;8.57;4.05;;;13.20;99.90;;;;;;4991720;28;20038;-73
2022/10/20 03:41:17;;;;;;;8.30;3.83;;;13.20;99.90;;;;;;4999235;28;20033;-74
2022/10/20 03:43:42;;;;;;;7.90;4.65;;;13.20;99.90;;;;;;4988955;28;20414;-74
2022/10/20 03:46:10;;;;;;;9.15;4.35;;;13.10;99.90;;;;;;4992664;28;20397;-73
2022/10/20 03:48:37;;;;;;;8.57;3.78;;;13.10;99.90;;;;;;4998690;28;20150;-74
2022/10/20 03:51:04;;;;;;;9.38;3.78;;;13.10;99.90;;;;;;4992863;28;20129;-74
2022/10/20 03:53:30;;;;;;;7.18;3.58;;;13.20;99.90;;;;;;4992529;28;20034;-73
2022/10/20 03:55:56;;;;;;;7.88;3.67;;;13.10;99.90;;;;;;4993336;28;20052;-74
2022/10/20 03:58:22;;;;;;;9.52;3.85;;;13.00;99.90;;;;;;5000778;28;20476;-74
2022/10/20 04:00:48;;;;;;;7.88;3.85;;;13.10;99.90;;;;;;4992765;28;20112;-74
2022/10/20 04:03:14;;;;;;;7.78;3.30;;;13.10;99.90;;;;;;4985501;28;20392;-74
2022/10/20 04:05:40;;;;;;;7.60;4.55;;;13.00;99.90;;;;;;4990677;28;20088;-74
2022/10/20 04:08:06;;;;;;;10.15;3.85;;;12.90;99.90;;;;;;4991554;28;20149;-73
2022/10/20 04:10:31;;;;;;;6.35;3.45;;;13.10;99.90;;;;;;4996967;28;20472;-74
2022/10/20 04:12:58;;;;;;;6.88;3.65;;;12.90;99.90;;;;;;4984413;28;20570;-74
2022/10/20 04:15:24;;;;;;;10.10;3.53;;;12.90;99.90;;;;;;4987108;28;20042;-74
2022/10/20 04:17:49;;;;;;;9.32;4.22;;;13.10;99.90;;;;;;4994746;28;20091;-74
2022/10/20 04:20:15;;;;;;;9.00;3.85;;;13.10;99.90;;;;;;4995900;28;20480;-74
2022/10/20 04:22:41;;;;;;;8.80;3.50;;;13.20;99.90;;;;;;4991672;28;20058;-74
2022/10/20 04:25:07;;;;;;;10.23;5.20;;;13.00;99.90;;;;;;4993967;28;20818;-74
2022/10/20 04:27:32;;;;;;;7.10;3.67;;;13.00;99.90;;;;;;4987827;28;20105;-74
2022/10/20 04:29:58;;;;;;;8.35;4.25;;;13.00;99.90;;;;;;4983893;28;20109;-74
2022/10/20 04:32:24;;;;;;;7.75;3.42;;;13.00;99.90;;;;;;4991005;28;20036;-74
2022/10/20 04:34:50;;;;;;;8.02;4.20;;;13.00;99.90;;;;;;4995204;28;20034;-74
2022/10/20 04:37:15;;;;;;;7.82;4.10;;;13.00;99.90;;;;;;5000602;28;20406;-74
2022/10/20 04:39:41;;;;;;;7.45;3.78;;;12.90;99.90;;;;;;4994942;28;20042;-74
2022/10/20 04:42:07;;;;;;;7.70;3.40;;;13.10;99.90;;;;;;4994259;28;20117;-74
2022/10/20 04:44:32;;;;;;;7.95;3.15;;;13.10;99.90;;;;;;4998566;28;20037;-73
2022/10/20 04:46:58;;;;;;;8.60;3.97;;;13.00;99.90;;;;;;4988946;28;20116;-74
2022/10/20 04:49:24;;;;;;;6.72;3.88;;;12.80;99.90;;;;;;5002881;28;20030;-73
2022/10/20 04:51:49;;;;;;;7.97;3.47;;;12.80;99.90;;;;;;4994565;28;20045;-74
2022/10/20 04:54:15;;;;;;;7.22;4.00;;;12.70;99.90;;;;;;4989611;28;20533;-74
2022/10/20 04:56:41;;;;;;;9.73;3.80;;;12.80;99.90;;;;;;4992938;28;20319;-74
2022/10/20 04:59:06;;;;;;;7.25;3.65;;;12.90;99.90;;;;;;4996055;28;20041;-74
2022/10/20 05:01:32;;;;;;;9.15;4.03;;;13.00;99.90;;;;;;4996900;28;20029;-74
2022/10/20 05:03:58;;;;;;;10.27;3.88;;;13.00;99.90;;;;;;4992248;28;20033;-74
2022/10/20 05:06:27;;;;;;;10.63;4.72;;;12.90;99.90;;;;;;4987854;28;20029;-74
2022/10/20 05:08:54;;;;;;;7.43;3.92;;;13.00;99.90;;;;;;4990893;28;20088;-73
2022/10/20 05:11:21;;;;;;;8.32;3.88;;;13.00;99.90;;;;;;4984236;28;20493;-74
2022/10/20 05:13:47;;;;;;;8.93;4.30;;;12.90;99.90;;;;;;4985545;28;20474;-74
2022/10/20 05:16:13;;;;;;;6.60;3.60;;;12.80;99.90;;;;;;4986101;28;20050;-74
2022/10/20 05:18:39;;;;;;;6.90;3.92;;;12.60;99.90;;;;;;4991668;28;20046;-73
2022/10/20 05:21:14;;;;;;;9.82;4.13;;;12.60;99.90;;;;;;4996328;28;20108;-73
2022/10/20 05:23:41;;;;;;;10.02;4.47;;;12.60;99.90;;;;;;4986217;28;20054;-72
2022/10/20 05:26:12;;;;;;;7.32;4.18;;;12.50;99.90;;;;;;4987875;28;20191;-74
2022/10/20 05:28:38;;;;;;;10.65;4.00;;;12.40;99.90;;;;;;4992872;28;20038;-73
2022/10/20 05:31:06;;;;;;;7.57;3.67;;;12.30;99.90;;;;;;4995292;28;20111;-73
2022/10/20 05:33:32;;;;;;;10.02;3.58;;;12.30;99.90;;;;;;4991175;28;20080;-74
2022/10/20 05:35:58;;;;;;;5.88;2.80;;;12.40;99.90;;;;;;4984755;28;20053;-74
2022/10/20 05:38:23;;;;;;;8.10;3.83;;;12.60;99.90;;;;;;4996199;28;20149;-74
2022/10/20 05:40:49;;;;;;;9.80;4.20;;;12.80;99.90;;;;;;4993500;28;20072;-74
2022/10/20 05:43:15;;;;;;;7.45;3.65;;;12.80;99.90;;;;;;4985097;28;20108;-73
2022/10/20 05:45:41;;;;;;;5.75;3.28;;;12.70;99.90;;;;;;4994039;28;20034;-73
2022/10/20 05:48:06;;;;;;;10.57;4.72;;;12.70;99.90;;;;;;4999456;28;20026;-73
2022/10/20 05:50:32;;;;;;;8.45;3.72;;;12.60;99.90;;;;;;4998072;28;20038;-74
2022/10/20 05:52:58;;;;;;;7.00;3.92;;;12.60;99.90;;;;;;4998089;28;20034;-74
2022/10/20 05:55:24;;;;;;;15.88;4.03;;;12.60;99.90;;;;;;4996818;28;20116;-73
2022/10/20 05:57:50;;;;;;;10.35;4.57;;;12.60;99.90;;;;;;4991355;28;20042;-73
2022/10/20 06:00:18;;;;;;;7.85;4.13;;;12.60;99.90;;;;;;4994400;28;20034;-73
2022/10/20 06:02:44;;;;;;;7.88;3.53;;;12.60;99.90;;;;;;4997102;28;20041;-74
2022/10/20 06:05:09;;;;;;;8.95;3.67;;;12.80;99.90;;;;;;4993891;28;20030;-73
2022/10/20 06:07:35;;;;;;;11.00;2.95;;;12.70;99.90;;;;;;4983656;28;20030;-74
2022/10/20 06:10:01;;;;;;;8.15;3.13;;;12.60;99.90;;;;;;4988500;28;20038;-74
2022/10/20 06:12:27;;;;;;;11.82;3.97;;;12.70;99.90;;;;;;5003138;28;20029;-74
2022/10/20 06:14:52;;;;;;;8.38;3.22;;;12.80;99.90;;;;;;4986484;28;20038;-74
2022/10/20 06:17:18;;;;;;;8.98;4.35;;;12.80;99.90;;;;;;4993795;28;20030;-74
2022/10/20 06:19:43;;;;;;;8.77;3.95;;;12.90;99.90;;;;;;4991272;28;20407;-75
2022/10/20 06:22:09;;;;;;;9.00;3.95;;;13.00;99.90;;;;;;5000537;28;20030;-73
2022/10/20 06:24:35;;;;;;;11.65;4.57;;;12.90;99.90;;;;;;5004130;28;20045;-74
2022/10/20 06:27:00;;;;;;;7.93;3.88;;;12.80;99.90;;;;;;4998287;28;20454;-73
2022/10/20 06:29:26;;;;;;;12.63;4.00;;;12.90;99.90;;;;;;4997965;28;20360;-73
2022/10/20 06:31:54;;;;;;;12.57;3.88;;;13.00;99.90;;;;;;4994779;28;21569;-73
2022/10/20 06:34:21;;;;;;;9.25;3.70;;;13.10;99.90;;;;;;4996171;28;20034;-74
2022/10/20 06:36:48;;;;;;;7.10;3.60;;;13.00;99.90;;;;;;4986745;28;20571;-73
2022/10/20 06:39:17;;;;;;;6.50;3.70;;;13.00;99.90;;;;;;4989001;28;20030;-74
2022/10/20 06:41:47;;;;;;;7.82;3.90;;;13.10;99.90;;;;;;4986410;28;20037;-74
2022/10/20 06:44:12;;;;;;;7.07;3.70;;;13.10;99.90;;;;;;4992466;28;20092;-73
2022/10/20 06:46:38;;;;;;;10.15;4.47;;;13.00;99.90;;;;;;4987550;28;20489;-74
2022/10/20 06:49:06;;;;;;;6.93;3.20;;;12.90;99.90;;;;;;4988296;28;20066;-74
2022/10/20 06:51:33;;;;;;;9.73;4.55;;;13.00;99.90;;;;;;4991060;28;20035;-74
2022/10/20 06:54:00;;;;;;;8.35;4.57;;;13.00;99.90;;;;;;4984126;28;20060;-74
2022/10/20 06:56:27;;;;;;;11.00;3.97;;;13.00;99.90;;;;;;4995726;28;20034;-73
2022/10/20 06:58:54;;;;;;;9.05;4.43;;;12.90;99.90;;;;;;4984547;28;20109;-74
2022/10/20 07:01:24;;;;;;;17.55;5.93;;;12.70;99.90;;;;;;4996465;28;20503;-74
2022/10/20 07:03:53;;;;;;;10.43;3.97;;;12.80;99.90;;;;;;5000199;28;20030;-73
2022/10/20 07:06:24;;;;;;;11.32;4.18;;;12.90;99.90;;;;;;4990481;28;20085;-74
2022/10/20 07:08:57;;;;;;;10.00;4.55;;;12.90;99.90;;;;;;4990823;28;20034;-74
2022/10/20 07:11:26;;;;;;;9.73;3.42;;;12.70;99.90;;;;;;4987452;28;20050;-74
2022/10/20 07:13:52;;;;;;;8.63;4.32;;;12.70;99.90;;;;;;4991396;28;20109;-74
2022/10/20 07:16:21;;;;;;;11.25;4.75;;;12.60;99.90;;;;;;4980608;28;20741;-73
2022/10/20 07:18:47;;;;;;;11.80;4.30;;;12.40;99.90;;;;;;4997544;28;20077;-74
2022/10/20 07:21:21;;;;;;;6.80;3.78;;;12.50;99.90;;;;;;4991078;28;20470;-74
2022/10/20 07:23:48;;;;;;;11.13;4.13;;;12.70;99.90;;;;;;4991401;28;20053;-74
2022/10/20 07:26:20;;;;;;;9.50;4.57;;;12.80;99.90;;;;;;4999487;28;20053;-74
2022/10/20 07:28:49;;;;;;;7.25;3.90;;;12.90;99.90;;;;;;4994610;28;20034;-74
2022/10/20 07:31:18;;;;;;;10.07;3.40;;;13.00;99.90;;;;;;4995540;28;20040;-74
2022/10/20 07:33:44;;;;;;;8.70;3.40;;;13.20;99.90;;;;;;4992942;28;20038;-74
2022/10/20 07:36:31;;;;;;;6.60;3.50;;;13.30;99.90;;;;;;4989232;28;20096;-74
2022/10/20 07:38:58;;;;;;;9.57;4.05;;;13.40;99.90;;;;;;4991484;28;20038;-74
2022/10/20 07:41:25;;;;;;;12.77;3.90;;;13.30;99.90;;;;;;4988563;28;20069;-74
2022/10/20 07:43:52;;;;;;;11.35;4.63;;;13.10;99.90;;;;;;4994459;28;20034;-74
2022/10/20 07:46:18;;;;;;;8.98;4.05;;;13.20;99.90;;;;;;4991280;28;20153;-75
2022/10/20 07:48:43;;;;;;;9.50;3.90;;;13.30;99.90;;;;;;4998491;28;20121;-76
2022/10/20 07:51:23;;;;;;;9.63;4.50;;;13.30;99.90;;;;;;4987900;28;20039;-76
2022/10/20 07:53:51;;;;;;;8.40;3.72;;;13.50;99.90;;;;;;4988378;28;20030;-76
2022/10/20 07:56:16;;;;;;;9.70;3.17;;;13.60;99.90;;;;;;4985890;28;20065;-75
2022/10/20 07:58:42;;;;;;;8.23;3.72;;;13.70;99.90;;;;;;4995641;28;20076;-76
2022/10/20 08:01:09;;;;;;;7.50;3.25;;;13.80;99.90;;;;;;5003707;28;20038;-75
2022/10/20 08:03:34;;;;;;;7.53;3.10;;;13.90;99.90;;;;;;4987290;28;20030;-76
2022/10/20 08:06:01;;;;;;;8.43;3.80;;;13.90;99.90;;;;;;5001645;28;20033;-75
2022/10/20 08:08:26;;;;;;;7.28;3.33;;;14.00;99.90;;;;;;4993243;28;20088;-75
2022/10/20 08:10:52;;;;;;;7.95;3.25;;;14.10;99.90;;;;;;4992932;28;20070;-75
2022/10/20 08:13:18;;;;;;;8.18;3.70;;;14.20;99.90;;;;;;4991752;28;20225;-75
2022/10/20 08:15:43;;;;;;;10.65;4.53;;;14.30;99.90;;;;;;4990302;28;20111;-75
2022/10/20 08:18:09;;;;;;;9.02;4.53;;;14.30;99.90;;;;;;4990763;28;20074;-75
2022/10/20 08:20:35;;;;;;;8.13;4.32;;;14.20;99.90;;;;;;4997581;28;20069;-74
2022/10/20 08:23:01;;;;;;;9.73;5.40;;;14.40;99.90;;;;;;5001136;28;20263;-75
2022/10/20 08:25:26;;;;;;;9.05;4.38;;;14.50;99.90;;;;;;4989256;28;20033;-75
2022/10/20 08:27:52;;;;;;;12.63;4.45;;;14.50;99.90;;;;;;4987659;28;20034;-75
2022/10/20 08:30:18;;;;;;;10.02;4.00;;;14.50;99.90;;;;;;4992245;28;20121;-75
2022/10/20 08:32:43;;;;;;;11.98;4.57;;;14.50;99.90;;;;;;4991029;28;20030;-75
2022/10/20 08:35:09;;;;;;;7.35;3.28;;;14.60;99.90;;;;;;4994197;28;20108;-75
2022/10/20 08:37:35;;;;;;;6.55;3.70;;;14.70;99.90;;;;;;4987647;28;20034;-75
2022/10/20 08:40:05;;;;;;;10.23;4.88;;;14.80;99.90;;;;;;4998557;28;20594;-75
2022/10/20 08:42:37;;;;;;;9.20;4.13;;;15.00;99.90;;;;;;4993308;28;20018;-75
2022/10/20 08:45:04;;;;;;;15.85;5.90;;;14.90;99.90;;;;;;4995869;28;20046;-75
2022/10/20 08:47:33;;;;;;;10.65;4.45;;;14.90;99.90;;;;;;4988795;28;20069;-75
2022/10/20 08:50:01;;;;;;;8.73;3.97;;;15.10;99.90;;;;;;4990016;28;20030;-75
2022/10/20 08:52:27;;;;;;;13.88;4.22;;;15.20;99.90;;;;;;4990519;28;20041;-75
2022/10/20 08:54:55;;;;;;;8.65;4.20;;;15.20;99.90;;;;;;4990447;28;20038;-75
2022/10/20 08:57:30;;;;;;;10.40;4.43;;;15.20;99.90;;;;;;4994663;28;20041;-75
2022/10/20 09:00:11;;;;;;;10.32;3.72;;;15.30;99.90;;;;;;4984506;28;20034;-75
2022/10/20 09:02:37;;;;;;;14.70;4.45;;;15.40;99.90;;;;;;4991506;28;20038;-75
2022/10/20 09:05:05;;;;;;;8.70;4.25;;;15.40;99.90;;;;;;4993126;28;20040;-75
2022/10/20 09:07:36;;;;;;;13.70;5.70;;;15.50;99.90;;;;;;4986685;28;20030;-75
2022/10/20 09:10:22;;;;;;;9.52;4.38;;;15.60;99.90;;;;;;4986818;28;22355;-75
2022/10/20 09:12:49;;;;;;;16.13;5.93;;;15.60;99.90;;;;;;4999667;28;20363;-75
2022/10/20 09:15:16;;;;;;;42.15;10.18;;;15.60;99.90;;;;;;4988944;28;20448;-75
2022/10/20 09:17:53;;;;;;;20.83;8.02;;;15.70;99.90;;;;;;4990666;28;20038;-73
2022/10/20 09:20:24;;;;;;;9.65;4.43;;;15.80;99.90;;;;;;4991644;28;20030;-74
2022/10/20 09:22:50;;;;;;;9.18;3.70;;;15.90;99.90;;;;;;4984273;28;20124;-74
2022/10/20 09:25:21;;;;;;;10.65;4.82;;;16.00;99.90;;;;;;4983740;28;20065;-73
2022/10/20 09:27:48;;;;;;;11.30;3.53;;;16.20;99.90;;;;;;4999683;28;20177;-73
2022/10/20 09:30:19;;;;;;;10.57;5.05;;;16.20;99.90;;;;;;4993551;28;20172;-73
2022/10/20 09:32:46;;;;;;;8.80;4.13;;;16.20;99.90;;;;;;4985891;28;20112;-73
2022/10/20 09:35:18;;;;;;;11.90;4.38;;;16.20;99.90;;;;;;4996099;28;20510;-73
2022/10/20 09:38:08;;;;;;;18.52;6.15;;;16.20;99.90;;;;;;4986480;28;20035;-73
2022/10/20 09:40:34;;;;;;;10.10;4.65;;;16.30;99.90;;;;;;4989765;28;20404;-71
2022/10/20 09:43:10;;;;;;;9.90;4.40;;;16.30;99.90;;;;;;4995465;28;20026;-73
2022/10/20 09:45:46;;;;;;;7.90;3.40;;;16.30;99.90;;;;;;4995678;28;20073;-73
2022/10/20 09:48:45;;;;;;;9.80;3.63;;;16.50;99.90;;;;;;4989880;28;20041;-73
2022/10/20 09:51:21;;;;;;;6.90;4.10;;;16.60;99.90;;;;;;4993175;28;20693;-73
2022/10/20 09:53:56;;;;;;;9.35;3.70;;;16.70;99.90;;;;;;4987726;28;20025;-73
2022/10/20 09:56:41;;;;;;;8.35;3.65;;;16.70;99.60;;;;;;4983354;28;21002;-73
2022/10/20 09:59:23;;;;;;;9.80;3.78;;;16.70;99.80;;;;;;4988864;28;20321;-73
2022/10/20 10:01:56;;;;;;;8.75;3.90;;;16.60;99.40;;;;;;4993100;28;20039;-73
2022/10/20 10:04:35;;;;;;;7.88;3.42;;;16.70;99.50;;;;;;4994266;28;20117;-73
2022/10/20 10:07:02;;;;;;;10.60;3.90;;;16.90;99.60;;;;;;4991061;28;20655;-73
2022/10/20 10:09:34;;;;;;;11.00;3.65;;;16.80;99.20;;;;;;4993984;28;20034;-73
2022/10/20 10:12:02;;;;;;;11.32;3.58;;;16.90;99.30;;;;;;4987328;28;20504;-73
2022/10/20 10:14:29;;;;;;;9.15;2.90;;;16.90;99.20;;;;;;4997094;28;20038;-73
2022/10/20 10:16:55;;;;;;;6.82;3.35;;;17.00;99.10;;;;;;4989111;28;20022;-74
2022/10/20 10:19:26;;;;;;;8.15;3.78;;;17.10;98.80;;;;;;4988392;28;20554;-73
2022/10/20 10:21:55;;;;;;;8.52;3.58;;;17.10;98.80;;;;;;4991982;28;20034;-75
2022/10/20 10:24:46;;;;;;;7.72;3.33;;;17.30;98.90;;;;;;4993778;28;20934;-74
2022/10/20 10:27:24;;;;;;;7.57;3.50;;;17.30;98.10;;;;;;4990090;28;20365;-74
2022/10/20 10:29:50;;;;;;;6.38;3.20;;;17.20;98.30;;;;;;4996455;28;20037;-74
2022/10/20 10:32:29;;;;;;;7.63;3.95;;;17.50;98.30;;;;;;4990025;28;20572;-74
2022/10/20 10:35:14;;;;;;;9.95;3.60;;;17.60;98.30;;;;;;4995235;28;20030;-74
2022/10/20 10:37:43;;;;;;;8.32;3.30;;;17.60;97.40;;;;;;4998141;28;20088;-74
2022/10/20 10:40:18;;;;;;;7.35;3.75;;;17.50;97.60;;;;;;4998515;28;20109;-75
2022/10/20 10:42:47;;;;;;;8.15;3.80;;;17.60;97.90;;;;;;4996390;28;20690;-74
2022/10/20 10:45:17;;;;;;;7.07;3.30;;;17.90;98.00;;;;;;4996717;28;20038;-75
2022/10/20 10:48:04;;;;;;;10.77;4.57;;;17.70;97.60;;;;;;4992886;28;20022;-75
2022/10/20 10:50:33;;;;;;;7.53;3.55;;;17.80;97.80;;;;;;5004025;28;20041;-74
2022/10/20 10:53:17;;;;;;;7.63;3.22;;;18.00;97.90;;;;;;5001064;28;20065;-75
2022/10/20 10:55:43;;;;;;;;;;;18.10;97.30;;;;;;4998065;28;20030;-74
2022/10/20 10:58:30;;;;;;;7.15;3.20;;;18.30;97.30;;;;;;4994135;28;19913;-74
2022/10/20 11:01:37;;;;;;;7.75;3.70;;;18.30;97.10;;;;;;4995714;28;20026;-75
2022/10/20 11:04:21;;;;;;;8.90;3.28;;;18.30;96.50;;;;;;4991878;28;20121;-75
2022/10/20 11:07:20;;;;;;;10.25;3.95;;;18.20;96.50;;;;;;4998488;28;20124;-75
2022/10/20 11:10:04;;;;;;;8.18;4.55;;;18.10;96.50;;;;;;4995447;28;20032;-74
2022/10/20 11:12:50;;;;;;;7.60;3.35;;;18.10;96.60;;;;;;5000792;28;20026;-74
2022/10/20 11:15:40;;;;;;;8.38;3.50;;;18.30;96.80;;;;;;4998228;28;20516;-74
2022/10/20 11:18:36;;;;;;;8.13;4.03;;;18.70;97.20;;;;;;4991432;28;20150;-74
2022/10/20 11:21:23;;;;;;;8.45;3.00;;;18.80;96.60;;;;;;4989394;28;20065;-74
2022/10/20 11:23:57;;;;;;;8.77;3.58;;;18.90;96.70;;;;;;4995788;28;20126;-75
2022/10/20 11:26:41;;;;;;;8.25;3.20;;;19.00;96.80;;;;;;4999221;28;20148;-74
2022/10/20 11:29:22;;;;;;;8.95;3.70;;;19.00;96.50;;;;;;4999650;28;20031;-74
2022/10/20 11:32:14;;;;;;;7.20;3.60;;;19.00;96.80;;;;;;5001185;28;20046;-74
2022/10/20 11:34:53;;;;;;;5.72;3.15;;;19.10;96.80;;;;;;4993972;28;20660;-74
2022/10/20 11:37:18;;;;;;;9.85;3.55;;;18.90;96.00;;;;;;4993042;28;20034;-74
2022/10/20 11:40:03;;;;;;;7.13;2.97;;;18.80;96.10;;;;;;5004026;28;20045;-74
2022/10/20 11:42:50;;;;;;;7.43;2.90;;;19.00;96.20;;;;;;4991128;28;20511;-74
2022/10/20 11:45:36;;;;;;;9.75;3.90;;;19.20;96.20;;;;;;4994649;28;20479;-74
2022/10/20 11:48:30;;;;;;;8.95;3.83;;;19.20;96.20;;;;;;5001606;28;20030;-74
2022/10/20 11:51:04;;;;;;;12.25;3.25;;;19.30;96.50;;;;;;4985612;28;20038;-74
2022/10/20 11:53:58;;;;;;;10.45;3.35;;;19.20;96.20;;;;;;4989907;28;20026;-74
2022/10/20 11:56:26;;;;;;;7.25;3.42;;;19.30;96.10;;;;;;4992704;28;20093;-74
2022/10/20 11:59:20;;;;;;;10.77;3.70;;;19.40;96.30;;;;;;4992004;28;20038;-74
2022/10/20 12:02:04;;;;;;;6.70;3.28;;;19.50;96.10;;;;;;4990364;28;20113;-74
2022/10/20 12:04:58;;;;;;;87.03;8.05;;;19.50;95.40;;;;;;4987074;28;20038;-75
2022/10/20 12:07:55;;;;;;;9.15;3.40;;;19.60;95.80;;;;;;4992449;28;20042;-74
2022/10/20 12:10:27;;;;;;;5.70;3.20;;;19.70;95.50;;;;;;4986850;28;20030;-74
2022/10/20 12:13:07;;;;;;;9.55;3.50;;;19.80;95.30;;;;;;4991395;28;20121;-74
2022/10/20 12:15:42;;;;;;;8.43;2.88;;;19.80;95.30;;;;;;4995416;28;20089;-74
2022/10/20 12:18:20;;;;;;;8.02;3.25;;;19.80;95.20;;;;;;4994137;28;20037;-74
2022/10/20 12:21:04;;;;;;;6.35;3.20;;;19.80;95.20;;;;;;4995692;28;20030;-74
2022/10/20 12:24:02;;;;;;;8.25;3.25;;;20.00;95.30;;;;;;4991199;28;20030;-74
2022/10/20 12:26:33;;;;;;;9.45;3.45;;;20.00;95.10;;;;;;4985601;28;20041;-74
2022/10/20 12:29:00;;;;;;;7.03;2.97;;;20.00;94.90;;;;;;4998336;28;20067;-75
2022/10/20 12:32:03;;;;;;;9.30;3.38;;;20.00;95.30;;;;;;4995153;28;20143;-75
2022/10/20 12:34:38;;;;;;;7.15;3.30;;;20.10;95.60;;;;;;4993085;28;20038;-75
2022/10/20 12:37:28;;;;;;;12.18;4.03;;;20.00;95.60;;;;;;4988918;28;20034;-74
2022/10/20 12:40:18;;;;;;;8.60;3.65;;;20.00;95.60;;;;;;4999459;28;20053;-74
2022/10/20 12:42:50;;;;;;;6.97;3.63;;;19.80;96.10;;;;;;4994926;28;20508;-74
2022/10/20 12:45:19;;;;;;;7.43;3.83;;;19.70;96.00;;;;;;4992066;28;20044;-74
2022/10/20 12:47:51;;;;;;;7.60;3.58;;;19.80;96.00;;;;;;4992064;28;20037;-74
2022/10/20 12:50:23;;;;;;;7.82;4.07;;;19.70;96.10;;;;;;4984754;28;20106;-74
2022/10/20 12:52:49;;;;;;;8.77;3.63;;;19.70;95.90;;;;;;4994355;28;20466;-74
2022/10/20 12:55:25;;;;;;;8.07;4.35;;;19.70;95.60;;;;;;5000193;28;20036;-74
2022/10/20 12:58:28;;;;;;;9.20;3.83;;;19.70;96.20;;;;;;4992558;28;20052;-74
2022/10/20 13:00:56;;;;;;;5.95;3.47;;;19.70;96.10;;;;;;4997426;28;20037;-74
2022/10/20 13:03:30;;;;;;;7.68;4.05;;;19.70;95.80;;;;;;4984262;28;20026;-74
2022/10/20 13:06:00;;;;;;;11.43;3.78;;;19.50;95.80;;;;;;4988992;28;20026;-74